Hlavní strana
METAR-TAF:

METAR-TAF

Letiště :

Bahrajn, Bahrajn

zeměpisná šířka: 26-16N, zeměpisná délka: 050-39E, výška: 2 m

Aktuální stav počasí

Zpráva byla vytvořena před 10 minutami, v 22:30 UTC
Západoseverozápadní vítr 13 kt
Teplota 16°C
Vlhkost vzduchu 59%
Tlak 1020 hPa
Viditelnost 10 km a více
Žádná oblačnost pod 1500 m, nevyskytují se cumulonimby.

METAR: OBBI 202230Z 29013KT CAVOK 16/08 Q1020 NOSIG

Čas: 01:40 (22:40 UTC)

Předpověď počasí

Zpráva byla vytvořena před 5 hodinami a 40 minutami, v 17:00 UTC
Předpověď platná od 20 v 18 UTC do 22 v 00 UTC
Severozápadní vítr 15 kt s nárazy do 25 kt
Viditelnost: 8000 m
Pravděpodobnost 30% :
Dočasný
od 20 v 22 UTC do 21 v 02 UTC
Viditelnost: 3000 m
rozsáhlý prach
Pravděpodobnost 30% :
Dočasný
od 21 v 11 UTC do 21 v 15 UTC
Viditelnost: 3000 m
rozsáhlý prach
Změna
od 21 v 18 UTC do 21 v 20 UTC
Severoseverozápadní vítr 13 kt

TAF: OBBI 201700Z 2018/2200 31015G25KT 8000 NSC PROB30 TEMPO 2022/2102 3000 DU PROB30 TEMPO 2111/2115 3000 DU BECMG 2118/2120 33013KT

Stav a předpovědi počasí z více než 4 000 letišť (zprávy METAR a TAF).

Červené a žluté tečky na mapě představují dostupné meteorologické stanice.

Když kurzor umístíte na tečku, zobrazí se název stanice.

Pak kliknutím zobrazíte stav a předpověď počasí.

Chcete-li změnit mapu, kliknutím na zelené tlačítko se znaménkem +mapu přiblížíte, kliknutím na zelené tlačítko se znaménkem – mapu oddálíte a kliknutím na zelené šipky přejdete na sousední mapy.


METAR-TAF: